Time;durP1;ratioP1;P1;durP2;ratioP2;P2;SDS_P1;SDS_P2;PMS_P1;PMS_P2;Temp;Humidity;BMP_temperature;BMP_pressure;BME280_temperature;BME280_humidity;BME280_pressure;Samples;Min_cycle;Max_cycle;Signal;HPM_P1;HPM_P2
2021/01/21 00:01:35;;;;;;;4.83;2.10;;;11.70;29.60;;;;;;5011057;28;20393;-72
2021/01/21 00:04:00;;;;;;;4.25;1.80;;;11.70;29.60;;;;;;5010618;28;20422;-74
2021/01/21 00:06:29;;;;;;;4.72;2.30;;;11.60;29.50;;;;;;5011118;28;20389;-73
2021/01/21 00:08:55;;;;;;;4.35;1.90;;;11.60;29.80;;;;;;5011650;28;20904;-73
2021/01/21 00:11:20;;;;;;;5.30;2.50;;;11.60;29.60;;;;;;5011428;28;20433;-73
2021/01/21 00:13:46;;;;;;;5.60;2.30;;;11.60;29.80;;;;;;5011200;28;20487;-75
2021/01/21 00:16:11;;;;;;;5.27;2.40;;;11.50;30.10;;;;;;4993552;28;20434;-72
2021/01/21 00:18:37;;;;;;;3.73;1.97;;;11.50;30.50;;;;;;5001035;28;20392;-72
2021/01/21 00:21:02;;;;;;;6.65;2.47;;;11.50;30.20;;;;;;5009355;28;20396;-73
2021/01/21 00:23:30;;;;;;;7.63;2.10;;;11.40;30.40;;;;;;5009512;28;20412;-71
2021/01/21 00:25:57;;;;;;;4.50;2.08;;;11.40;30.20;;;;;;5011046;28;20388;-73
2021/01/21 00:28:22;;;;;;;4.38;2.30;;;11.40;30.50;;;;;;5011913;28;20391;-73
2021/01/21 00:30:48;;;;;;;2.43;1.80;;;11.40;30.30;;;;;;5012090;28;20396;-72
2021/01/21 00:33:14;;;;;;;10.50;2.20;;;11.40;30.20;;;;;;5011733;28;20389;-73
2021/01/21 00:35:39;;;;;;;3.20;1.75;;;11.40;30.20;;;;;;5011857;28;20392;-72
2021/01/21 00:38:05;;;;;;;6.60;2.35;;;11.40;30.10;;;;;;5011683;28;20479;-74
2021/01/21 00:40:30;;;;;;;7.22;1.95;;;11.40;30.40;;;;;;5010823;28;20413;-73
2021/01/21 00:42:56;;;;;;;4.13;2.10;;;11.50;29.70;;;;;;5010621;28;20416;-74
2021/01/21 00:45:22;;;;;;;4.13;1.92;;;11.50;30.00;;;;;;5010847;28;20419;-73
2021/01/21 00:47:47;;;;;;;5.38;1.98;;;11.50;29.90;;;;;;5010646;28;20381;-72
2021/01/21 00:50:13;;;;;;;7.43;2.20;;;11.60;29.50;;;;;;5010181;28;20460;-73
2021/01/21 00:52:39;;;;;;;5.25;2.00;;;11.60;29.70;;;;;;5010389;28;20388;-73
2021/01/21 00:55:05;;;;;;;5.63;1.85;;;11.60;29.80;;;;;;5010448;28;20400;-73
2021/01/21 00:57:31;;;;;;;3.95;1.63;;;11.60;29.20;;;;;;5010842;28;20871;-74
2021/01/21 00:59:56;;;;;;;3.70;2.20;;;11.50;29.40;;;;;;5010757;28;20448;-72
2021/01/21 01:02:22;;;;;;;4.43;1.90;;;11.60;30.10;;;;;;5013784;28;20392;-74
2021/01/21 01:04:48;;;;;;;6.47;2.07;;;11.60;29.40;;;;;;5014629;28;20377;-73
2021/01/21 01:07:13;;;;;;;2.47;1.70;;;11.50;29.70;;;;;;5014721;28;20385;-73
2021/01/21 01:09:39;;;;;;;5.22;2.10;;;11.50;29.20;;;;;;5014229;28;20746;-72
2021/01/21 01:12:04;;;;;;;4.18;1.70;;;11.60;29.30;;;;;;5013507;28;20758;-74
2021/01/21 01:14:30;;;;;;;7.30;2.35;;;11.50;29.30;;;;;;4998361;28;20393;-72
2021/01/21 01:16:55;;;;;;;3.97;1.85;;;11.60;29.50;;;;;;5014177;28;20415;-72
2021/01/21 01:19:21;;;;;;;7.10;2.08;;;11.60;29.30;;;;;;4997886;28;20919;-71
2021/01/21 01:21:46;;;;;;;4.03;1.90;;;11.60;29.30;;;;;;4994490;28;20394;-72
2021/01/21 01:24:13;;;;;;;4.87;1.70;;;11.70;28.70;;;;;;4994373;28;20413;-73
2021/01/21 01:26:38;;;;;;;4.18;1.77;;;11.70;28.40;;;;;;4995789;28;20386;-72
2021/01/21 01:29:04;;;;;;;4.55;2.10;;;11.70;28.50;;;;;;4995645;28;20429;-72
2021/01/21 01:31:29;;;;;;;3.80;2.10;;;11.70;28.30;;;;;;4995538;28;20445;-73
2021/01/21 01:33:55;;;;;;;4.53;1.60;;;11.70;28.70;;;;;;4995531;28;20394;-72
2021/01/21 01:36:20;;;;;;;3.97;2.03;;;11.60;28.60;;;;;;4995491;28;20757;-72
2021/01/21 01:38:46;;;;;;;3.33;1.77;;;11.60;28.80;;;;;;4995545;28;20413;-73
2021/01/21 01:41:11;;;;;;;3.73;2.00;;;11.50;28.80;;;;;;4995574;28;20481;-72
2021/01/21 01:43:37;;;;;;;4.10;1.93;;;11.50;28.80;;;;;;4995760;28;20476;-72
2021/01/21 01:46:06;;;;;;;4.90;2.00;;;11.40;29.00;;;;;;4994764;28;20390;-72
2021/01/21 01:48:32;;;;;;;4.63;2.00;;;11.30;29.50;;;;;;4994705;28;20481;-73
2021/01/21 01:51:02;;;;;;;4.43;1.90;;;11.30;29.60;;;;;;4993578;28;20529;-73
2021/01/21 01:53:29;;;;;;;5.65;1.80;;;11.30;29.50;;;;;;4993839;28;20860;-72
2021/01/21 01:55:55;;;;;;;4.67;2.00;;;11.40;28.90;;;;;;5004653;28;20416;-72
2021/01/21 01:58:22;;;;;;;3.60;1.70;;;11.40;28.90;;;;;;5013599;28;20455;-73
2021/01/21 02:00:49;;;;;;;4.38;1.83;;;11.40;28.90;;;;;;5013123;28;20489;-74
2021/01/21 02:03:15;;;;;;;5.05;2.45;;;11.50;28.70;;;;;;5013459;28;20391;-72
2021/01/21 02:05:40;;;;;;;3.93;1.80;;;11.50;28.90;;;;;;5013421;28;20377;-74
2021/01/21 02:08:06;;;;;;;2.87;2.03;;;11.60;28.30;;;;;;5013273;28;20432;-72
2021/01/21 02:10:33;;;;;;;4.20;1.67;;;11.70;27.80;;;;;;5013031;28;20484;-73
2021/01/21 02:13:27;;;;;;;4.00;2.00;;;11.80;27.60;;;;;;5004404;28;20497;-72
2021/01/21 02:16:30;;;;;;;4.28;2.10;;;11.80;27.50;;;;;;5007750;28;20499;-73
2021/01/21 02:19:10;;;;;;;2.50;1.67;;;11.80;26.60;;;;;;5000011;28;20410;-72
2021/01/21 02:22:03;;;;;;;3.70;1.80;;;11.90;26.70;;;;;;4993332;28;20415;-73
2021/01/21 02:25:06;;;;;;;2.53;1.75;;;12.00;26.10;;;;;;4993574;28;20421;-74
2021/01/21 02:27:53;;;;;;;2.70;1.80;;;12.10;26.30;;;;;;4993123;28;20447;-73
2021/01/21 02:30:49;;;;;;;3.93;1.80;;;12.10;26.20;;;;;;4993005;28;20900;-71
2021/01/21 02:33:55;;;;;;;3.60;1.60;;;12.10;25.80;;;;;;4993218;28;20876;-72
2021/01/21 02:36:25;;;;;;;3.38;1.70;;;12.20;25.90;;;;;;4989919;28;20877;-73
2021/01/21 02:38:53;;;;;;;2.72;1.50;;;12.20;25.10;;;;;;4992914;28;20972;-74
2021/01/21 02:41:19;;;;;;;3.63;1.65;;;12.20;25.30;;;;;;4993068;28;20409;-73
2021/01/21 02:43:54;;;;;;;4.80;1.77;;;12.30;25.20;;;;;;4993037;28;20472;-72
2021/01/21 02:46:21;;;;;;;3.80;1.70;;;12.30;25.30;;;;;;4993065;28;20943;-73
2021/01/21 02:48:50;;;;;;;3.30;1.80;;;12.30;25.40;;;;;;4992712;28;20391;-73
2021/01/21 02:51:32;;;;;;;4.80;1.70;;;12.30;25.50;;;;;;4991508;28;20426;-72
2021/01/21 02:54:25;;;;;;;2.97;1.60;;;12.40;25.10;;;;;;4992711;28;20435;-72
2021/01/21 02:57:05;;;;;;;4.35;1.60;;;12.40;25.10;;;;;;5009617;28;20389;-72
2021/01/21 02:59:33;;;;;;;2.47;1.63;;;12.30;25.30;;;;;;5016003;28;21008;-74
2021/01/21 03:02:01;;;;;;;5.63;1.73;;;12.30;25.70;;;;;;5013896;28;20395;-72
2021/01/21 03:04:28;;;;;;;6.32;2.17;;;12.30;25.60;;;;;;5014963;28;20724;-73
2021/01/21 03:06:58;;;;;;;4.10;1.50;;;12.30;25.60;;;;;;5015398;28;20399;-72
2021/01/21 03:09:24;;;;;;;6.30;1.92;;;12.40;25.40;;;;;;5016127;28;20408;-73
2021/01/21 03:11:49;;;;;;;5.22;1.48;;;12.30;25.70;;;;;;5015885;28;20389;-71
2021/01/21 03:14:15;;;;;;;3.67;1.77;;;12.40;25.60;;;;;;4997898;28;20398;-72
2021/01/21 03:16:41;;;;;;;3.20;1.90;;;12.40;25.60;;;;;;5012434;28;20936;-72
2021/01/21 03:19:06;;;;;;;1.75;1.30;;;12.40;25.60;;;;;;5000209;28;20892;-73
2021/01/21 03:21:32;;;;;;;6.32;1.58;;;12.40;25.80;;;;;;4995413;28;20399;-72
2021/01/21 03:23:57;;;;;;;3.07;1.43;;;12.40;25.60;;;;;;4993758;28;20405;-73
2021/01/21 03:26:23;;;;;;;3.57;1.60;;;12.40;25.70;;;;;;4992914;28;20437;-72
2021/01/21 03:28:48;;;;;;;3.60;1.30;;;12.40;25.60;;;;;;4993335;28;20844;-73
2021/01/21 03:31:14;;;;;;;3.77;2.40;;;12.40;25.80;;;;;;4993814;28;20441;-72
2021/01/21 03:33:39;;;;;;;2.50;1.20;;;12.40;25.90;;;;;;4993080;28;20387;-72
2021/01/21 03:36:06;;;;;;;1.83;1.55;;;12.40;26.10;;;;;;4993236;28;20726;-73
2021/01/21 03:38:31;;;;;;;2.30;1.48;;;12.40;26.30;;;;;;4993446;28;20887;-73
2021/01/21 03:40:57;;;;;;;6.10;1.40;;;12.40;26.30;;;;;;4993736;28;20445;-73
2021/01/21 03:43:22;;;;;;;1.70;1.40;;;12.40;26.20;;;;;;4993918;28;20426;-72
2021/01/21 03:45:48;;;;;;;3.40;1.50;;;12.40;26.20;;;;;;4993358;28;20398;-75
2021/01/21 03:48:13;;;;;;;3.40;1.87;;;12.40;26.40;;;;;;4993460;28;20395;-75
2021/01/21 03:50:39;;;;;;;1.90;1.40;;;12.50;26.60;;;;;;4993109;28;20884;-71
2021/01/21 03:53:04;;;;;;;4.20;1.53;;;12.50;26.30;;;;;;4994377;28;20474;-73
2021/01/21 03:55:30;;;;;;;2.53;1.30;;;12.50;26.40;;;;;;5000864;28;20396;-73
2021/01/21 03:57:55;;;;;;;1.20;1.10;;;12.50;26.40;;;;;;5013410;28;20388;-75
2021/01/21 04:00:21;;;;;;;5.03;1.35;;;12.50;26.50;;;;;;5013422;28;20413;-74
2021/01/21 04:02:47;;;;;;;4.00;1.20;;;12.50;26.30;;;;;;5013617;28;20396;-73
2021/01/21 04:05:12;;;;;;;3.60;1.40;;;12.60;26.30;;;;;;5013817;28;20893;-73
2021/01/21 04:07:38;;;;;;;3.20;1.60;;;12.60;26.30;;;;;;5014014;28;20484;-74
2021/01/21 04:10:04;;;;;;;2.50;1.30;;;12.60;26.50;;;;;;5018990;28;20392;-72
2021/01/21 04:12:29;;;;;;;3.10;1.50;;;12.60;26.30;;;;;;5015319;28;20402;-73
2021/01/21 04:14:55;;;;;;;3.07;1.50;;;12.60;26.30;;;;;;5005926;28;20431;-73
2021/01/21 04:17:21;;;;;;;2.42;1.40;;;12.60;26.40;;;;;;5019876;28;20435;-74
2021/01/21 04:19:46;;;;;;;2.00;1.40;;;12.60;26.30;;;;;;4996751;28;20410;-73
2021/01/21 04:22:12;;;;;;;2.03;1.40;;;12.70;26.60;;;;;;4992794;28;20390;-72
2021/01/21 04:24:38;;;;;;;2.50;1.50;;;12.70;26.60;;;;;;4991167;28;20788;-72
2021/01/21 04:27:03;;;;;;;1.67;1.33;;;12.70;26.90;;;;;;4991134;28;20386;-72
2021/01/21 04:29:29;;;;;;;2.00;1.30;;;12.60;27.10;;;;;;4990848;28;20474;-73
2021/01/21 04:31:54;;;;;;;3.60;1.50;;;12.60;27.30;;;;;;4991056;28;20390;-72
2021/01/21 04:34:20;;;;;;;2.23;1.67;;;12.60;27.50;;;;;;4991170;28;20394;-72
2021/01/21 04:36:46;;;;;;;2.23;1.30;;;12.60;27.80;;;;;;4993052;28;20391;-73
2021/01/21 04:39:11;;;;;;;2.40;1.30;;;12.60;28.30;;;;;;4994948;28;20441;-73
2021/01/21 04:41:37;;;;;;;1.90;1.40;;;12.60;28.30;;;;;;4993852;28;20923;-73
2021/01/21 04:44:03;;;;;;;2.22;1.20;;;12.60;28.80;;;;;;4995209;28;20382;-73
2021/01/21 04:46:28;;;;;;;2.28;1.20;;;12.50;29.20;;;;;;4995068;28;20781;-72
2021/01/21 04:48:55;;;;;;;4.68;2.30;;;12.60;29.30;;;;;;4994684;28;20417;-74
2021/01/21 04:51:21;;;;;;;35.55;19.48;;;12.50;30.00;;;;;;4994828;28;20390;-73
2021/01/21 04:53:50;;;;;;;11.60;6.25;;;12.50;31.00;;;;;;4995149;28;20440;-72
2021/01/21 04:56:24;;;;;;;1.50;1.08;;;12.50;30.50;;;;;;5008478;28;20397;-74
2021/01/21 04:58:55;;;;;;;7.00;1.20;;;12.50;30.20;;;;;;5014218;28;20400;-73
2021/01/21 05:01:21;;;;;;;2.90;1.50;;;12.40;30.50;;;;;;5014605;28;20388;-73
2021/01/21 05:03:47;;;;;;;3.80;2.30;;;12.40;30.70;;;;;;5014277;28;20746;-74
2021/01/21 05:06:13;;;;;;;7.82;4.25;;;12.40;31.00;;;;;;5014302;28;20377;-73
2021/01/21 05:08:40;;;;;;;10.30;6.07;;;12.40;31.00;;;;;;5013906;28;20389;-73
2021/01/21 05:11:06;;;;;;;5.40;3.63;;;12.50;31.60;;;;;;5014277;28;20393;-74
2021/01/21 05:13:31;;;;;;;7.40;4.50;;;12.50;31.60;;;;;;5001486;28;20414;-73
2021/01/21 05:15:57;;;;;;;5.60;1.13;;;12.40;32.00;;;;;;5009815;28;20380;-73
2021/01/21 05:18:30;;;;;;;6.40;3.75;;;12.30;31.90;;;;;;5005589;28;20433;-72
2021/01/21 05:20:56;;;;;;;1.80;1.30;;;12.40;32.60;;;;;;4993904;28;20421;-72
2021/01/21 05:23:25;;;;;;;2.88;1.52;;;12.30;33.00;;;;;;4994016;28;20402;-73
2021/01/21 05:25:51;;;;;;;4.05;1.40;;;12.30;34.90;;;;;;4994152;28;20383;-72
2021/01/21 05:28:18;;;;;;;11.60;1.85;;;12.10;45.00;;;;;;4993902;28;20394;-73
2021/01/21 05:30:47;;;;;;;9.90;0.90;;;11.50;45.90;;;;;;4993850;28;20398;-72
2021/01/21 05:33:14;;;;;;;3.08;1.52;;;10.40;41.40;;;;;;4994522;28;20393;-74
2021/01/21 05:35:41;;;;;;;2.25;0.70;;;9.50;45.30;;;;;;4994164;28;20397;-73
2021/01/21 05:38:08;;;;;;;2.00;1.00;;;8.80;52.90;;;;;;4994363;28;20398;-74
2021/01/21 05:40:34;;;;;;;1.30;0.70;;;8.40;58.70;;;;;;4993830;28;20410;-73
2021/01/21 05:43:01;;;;;;;3.70;0.80;;;8.00;58.90;;;;;;4993095;28;20390;-73
2021/01/21 05:45:27;;;;;;;6.15;1.05;;;7.90;62.80;;;;;;4994322;28;20795;-74
2021/01/21 05:48:00;;;;;;;2.07;0.90;;;7.70;64.40;;;;;;4993411;28;20398;-73
2021/01/21 05:50:26;;;;;;;3.05;0.90;;;7.60;68.20;;;;;;4994847;28;20830;-73
2021/01/21 05:52:53;;;;;;;3.10;0.63;;;7.60;65.90;;;;;;4993333;28;20386;-73
2021/01/21 05:55:27;;;;;;;2.70;0.90;;;7.60;68.30;;;;;;5000237;28;20403;-74
2021/01/21 05:57:55;;;;;;;2.90;0.70;;;7.50;68.60;;;;;;5014053;28;20445;-74
2021/01/21 06:00:24;;;;;;;3.70;0.70;;;7.50;67.60;;;;;;5013422;28;20788;-75
2021/01/21 06:02:51;;;;;;;2.20;0.80;;;7.50;68.70;;;;;;5017803;28;20384;-73
2021/01/21 06:05:21;;;;;;;2.30;0.70;;;7.50;61.00;;;;;;5017808;28;20384;-72
2021/01/21 06:07:48;;;;;;;1.40;0.83;;;7.50;59.70;;;;;;5017127;28;20499;-73
2021/01/21 06:10:15;;;;;;;3.50;1.10;;;7.50;59.20;;;;;;5015689;28;20406;-75
2021/01/21 06:12:51;;;;;;;2.10;0.63;;;7.50;57.00;;;;;;5010536;28;20452;-73
2021/01/21 06:15:17;;;;;;;1.92;0.80;;;7.40;59.50;;;;;;5008876;28;20392;-74
2021/01/21 06:17:44;;;;;;;2.13;0.80;;;7.30;63.40;;;;;;5016987;28;20445;-74
2021/01/21 06:20:11;;;;;;;4.38;0.80;;;7.30;64.40;;;;;;4999069;28;20437;-73
2021/01/21 06:22:46;;;;;;;2.20;0.80;;;7.40;60.00;;;;;;4998920;28;20432;-73
2021/01/21 06:25:13;;;;;;;4.43;0.80;;;7.40;60.40;;;;;;4997197;28;20435;-73
2021/01/21 06:27:41;;;;;;;3.50;0.88;;;7.40;60.30;;;;;;4991534;28;20690;-72
2021/01/21 06:30:11;;;;;;;5.50;0.90;;;7.40;59.30;;;;;;4992986;28;20496;-73
2021/01/21 06:32:47;;;;;;;4.05;1.17;;;7.40;60.20;;;;;;4992878;28;20509;-73
2021/01/21 06:35:18;;;;;;;3.80;0.98;;;7.40;60.40;;;;;;4994092;28;20398;-73
2021/01/21 06:37:50;;;;;;;3.30;1.00;;;7.40;61.60;;;;;;4995932;28;20764;-75
2021/01/21 06:40:17;;;;;;;2.40;1.00;;;7.30;60.70;;;;;;4997044;28;20409;-74
2021/01/21 06:42:58;;;;;;;4.03;1.23;;;7.30;60.50;;;;;;4996534;28;20398;-74
2021/01/21 06:45:24;;;;;;;4.82;0.98;;;7.30;58.50;;;;;;4995534;28;20383;-73
2021/01/21 06:47:50;;;;;;;8.75;1.60;;;7.30;57.80;;;;;;4992391;28;20401;-73
2021/01/21 06:50:16;;;;;;;5.63;1.30;;;7.20;60.20;;;;;;4993819;28;20414;-74
2021/01/21 06:52:43;;;;;;;5.78;1.23;;;7.20;59.50;;;;;;4994805;28;20481;-73
2021/01/21 06:55:10;;;;;;;3.42;1.40;;;7.20;58.70;;;;;;4998339;28;20397;-73
2021/01/21 06:57:35;;;;;;;3.53;1.30;;;7.30;58.40;;;;;;5010872;28;20984;-71
2021/01/21 07:00:08;;;;;;;7.72;1.40;;;7.20;57.80;;;;;;5011157;28;20413;-70
2021/01/21 07:02:47;;;;;;;5.28;1.55;;;7.30;57.70;;;;;;5012578;28;20380;-70
2021/01/21 07:05:18;;;;;;;7.50;1.60;;;7.20;58.70;;;;;;5012474;28;20460;-71
2021/01/21 07:07:52;;;;;;;4.70;1.20;;;7.20;58.40;;;;;;5011581;28;20377;-73
2021/01/21 07:10:23;;;;;;;8.87;1.33;;;7.10;59.60;;;;;;5011860;28;20945;-69
2021/01/21 07:12:49;;;;;;;4.50;1.50;;;7.20;56.70;;;;;;5005761;28;20405;-79
2021/01/21 07:15:16;;;;;;;4.57;1.20;;;7.30;56.90;;;;;;5001417;28;20399;-72
2021/01/21 07:17:42;;;;;;;5.50;1.60;;;7.30;56.90;;;;;;5008711;28;20478;-71
2021/01/21 07:20:08;;;;;;;5.47;1.45;;;7.30;55.30;;;;;;4991399;28;20501;-70
2021/01/21 07:22:33;;;;;;;6.97;1.65;;;7.30;55.80;;;;;;4991887;28;20482;-71
2021/01/21 07:25:04;;;;;;;5.30;1.30;;;7.30;56.00;;;;;;4991858;28;20480;-71
2021/01/21 07:27:33;;;;;;;4.80;1.65;;;7.30;54.30;;;;;;4991618;28;20382;-73
2021/01/21 07:30:19;;;;;;;5.90;1.67;;;7.30;55.40;;;;;;4993280;28;20853;-72
2021/01/21 07:32:45;;;;;;;5.80;1.40;;;7.30;55.50;;;;;;5009386;28;20442;-72
2021/01/21 07:35:32;;;;;;;4.45;1.65;;;7.40;55.30;;;;;;5011412;28;20400;-72
2021/01/21 07:37:59;;;;;;;8.20;1.88;;;7.30;56.00;;;;;;5011207;28;20395;-72
2021/01/21 07:40:44;;;;;;;5.18;1.60;;;7.30;54.90;;;;;;5010979;28;20409;-72
2021/01/21 07:43:11;;;;;;;5.35;1.70;;;7.30;55.10;;;;;;5010946;28;20449;-71
2021/01/21 07:45:36;;;;;;;6.63;1.80;;;7.20;55.80;;;;;;5010781;28;20420;-73
2021/01/21 07:48:18;;;;;;;7.45;1.40;;;7.20;54.70;;;;;;5010843;28;20417;-74
2021/01/21 07:50:44;;;;;;;5.50;1.80;;;7.10;54.80;;;;;;5012032;28;20396;-76
2021/01/21 07:53:25;;;;;;;4.63;1.30;;;7.10;55.40;;;;;;5012064;28;20477;-72
2021/01/21 07:55:53;;;;;;;8.05;1.98;;;7.20;54.20;;;;;;5010877;28;20393;-72
2021/01/21 07:58:23;;;;;;;4.30;1.40;;;7.10;55.20;;;;;;5010451;28;20428;-73
2021/01/21 08:00:53;;;;;;;6.60;1.60;;;7.20;53.80;;;;;;5010362;28;20436;-74
2021/01/21 08:03:26;;;;;;;10.68;1.85;;;7.20;54.10;;;;;;5010828;28;20392;-74
2021/01/21 08:06:05;;;;;;;9.77;1.88;;;7.10;54.20;;;;;;5009996;28;20878;-72
2021/01/21 08:08:30;;;;;;;3.30;1.42;;;7.00;53.50;;;;;;5010480;28;20878;-72
2021/01/21 08:11:11;;;;;;;9.60;1.80;;;7.00;54.70;;;;;;5008381;28;20407;-72
2021/01/21 08:13:38;;;;;;;7.20;1.70;;;6.90;54.40;;;;;;5010361;28;20388;-73
2021/01/21 08:16:05;;;;;;;6.32;1.50;;;6.80;55.80;;;;;;5010651;28;20463;-72
2021/01/21 08:18:33;;;;;;;8.52;1.90;;;6.80;56.20;;;;;;5015755;28;20484;-73
2021/01/21 08:20:58;;;;;;;8.90;1.80;;;6.70;56.30;;;;;;5015230;28;20413;-74
2021/01/21 08:23:24;;;;;;;8.13;1.90;;;6.70;56.60;;;;;;5014641;28;20411;-74
2021/01/21 08:25:53;;;;;;;5.50;1.50;;;6.70;56.40;;;;;;5015401;28;20406;-75
2021/01/21 08:28:21;;;;;;;9.23;1.87;;;6.80;55.60;;;;;;5014002;28;21034;-74
2021/01/21 08:30:49;;;;;;;4.70;1.97;;;6.70;55.30;;;;;;5013353;28;20427;-74
2021/01/21 08:33:25;;;;;;;8.00;1.80;;;6.70;56.50;;;;;;5011453;28;20774;-74
2021/01/21 08:35:59;;;;;;;4.77;1.87;;;6.60;56.70;;;;;;5011447;28;20553;-73
2021/01/21 08:38:27;;;;;;;8.13;2.00;;;6.70;56.20;;;;;;5014286;28;20412;-75
2021/01/21 08:40:54;;;;;;;8.50;2.10;;;6.70;56.60;;;;;;5014201;28;20411;-73
2021/01/21 08:43:21;;;;;;;6.20;1.67;;;6.80;54.80;;;;;;5014592;28;20504;-72
2021/01/21 08:45:46;;;;;;;9.20;2.20;;;6.90;53.70;;;;;;5014518;28;20404;-73
2021/01/21 08:48:29;;;;;;;6.55;1.80;;;6.90;53.80;;;;;;5015221;28;20810;-74
2021/01/21 08:50:56;;;;;;;5.28;1.90;;;7.00;53.70;;;;;;5010345;28;20516;-72
2021/01/21 08:53:30;;;;;;;6.18;1.60;;;7.00;54.30;;;;;;5009707;28;20446;-73
2021/01/21 08:55:56;;;;;;;6.53;2.00;;;7.00;53.30;;;;;;5010263;28;20400;-73
2021/01/21 08:58:33;;;;;;;13.30;2.10;;;7.00;53.40;;;;;;5009403;28;20446;-72
2021/01/21 09:01:06;;;;;;;7.63;2.00;;;7.00;53.50;;;;;;5009987;28;20419;-73
2021/01/21 09:03:51;;;;;;;7.88;1.98;;;7.10;52.10;;;;;;5009469;28;20387;-74
2021/01/21 09:06:19;;;;;;;8.57;1.83;;;7.20;51.80;;;;;;5014195;28;20408;-72
2021/01/21 09:08:56;;;;;;;5.47;1.60;;;7.20;51.30;;;;;;5014560;28;20467;-74
2021/01/21 09:11:39;;;;;;;8.48;1.58;;;7.50;49.90;;;;;;5016374;28;20407;-74
2021/01/21 09:14:26;;;;;;;8.77;2.20;;;7.70;47.80;;;;;;5017740;28;20901;-72
2021/01/21 09:16:53;;;;;;;3.83;1.83;;;8.00;44.90;;;;;;5017801;28;20392;-73
2021/01/21 09:19:25;;;;;;;9.27;2.30;;;7.90;44.50;;;;;;5015142;28;20440;-71
2021/01/21 09:22:05;;;;;;;5.40;1.50;;;7.90;45.10;;;;;;5017869;28;20936;-73
2021/01/21 09:24:34;;;;;;;8.57;3.00;;;7.80;44.70;;;;;;5020089;28;20416;-77
2021/01/21 09:27:13;;;;;;;4.85;2.13;;;7.80;45.00;;;;;;5018563;28;20707;-71
2021/01/21 09:29:52;;;;;;;9.55;2.03;;;7.80;44.70;;;;;;5012465;28;20408;-73
2021/01/21 09:32:22;;;;;;;7.60;1.73;;;7.90;44.10;;;;;;5012480;28;20742;-73
2021/01/21 09:34:56;;;;;;;5.50;1.90;;;7.90;44.40;;;;;;5012158;28;20412;-73
2021/01/21 09:37:22;;;;;;;8.70;2.00;;;8.00;42.70;;;;;;5013570;28;20399;-72
2021/01/21 09:39:48;;;;;;;8.05;2.03;;;8.20;40.90;;;;;;5012853;28;20476;-72
2021/01/21 09:42:14;;;;;;;5.30;1.50;;;8.20;40.10;;;;;;5013672;28;20466;-74
2021/01/21 09:44:40;;;;;;;5.50;1.48;;;8.30;39.70;;;;;;5009492;28;20485;-74
2021/01/21 09:47:06;;;;;;;9.63;2.00;;;8.30;39.00;;;;;;5011441;28;20968;-73
2021/01/21 09:49:31;;;;;;;7.30;1.90;;;8.30;39.00;;;;;;5017633;28;20415;-73
2021/01/21 09:51:59;;;;;;;8.30;1.70;;;8.30;39.40;;;;;;5016319;28;20396;-74
2021/01/21 09:54:25;;;;;;;11.32;2.10;;;8.30;39.00;;;;;;5012746;28;20389;-73
2021/01/21 09:56:52;;;;;;;9.63;1.92;;;8.40;38.70;;;;;;5011665;28;20408;-74
2021/01/21 09:59:18;;;;;;;3.83;1.40;;;8.40;38.60;;;;;;5011788;28;20533;-75
2021/01/21 10:01:44;;;;;;;10.30;2.30;;;8.50;38.00;;;;;;5009969;28;20413;-74
2021/01/21 10:04:09;;;;;;;6.77;1.73;;;8.50;37.70;;;;;;5011712;28;20494;-72
2021/01/21 10:06:35;;;;;;;11.63;2.10;;;8.50;38.00;;;;;;5012730;28;20821;-73
2021/01/21 10:09:00;;;;;;;10.20;2.30;;;8.60;37.80;;;;;;5011187;28;20520;-72
2021/01/21 10:11:26;;;;;;;6.75;2.38;;;8.60;37.70;;;;;;5012374;28;20396;-73
2021/01/21 10:13:55;;;;;;;10.97;2.77;;;8.60;37.50;;;;;;5012963;28;20497;-75
2021/01/21 10:16:21;;;;;;;8.48;2.05;;;8.70;37.70;;;;;;5015283;28;20396;-75
2021/01/21 10:18:46;;;;;;;13.10;1.80;;;8.80;37.20;;;;;;5013883;28;20412;-76
2021/01/21 10:21:12;;;;;;;4.40;1.67;;;8.80;36.70;;;;;;5014709;28;20409;-75
2021/01/21 10:23:37;;;;;;;9.38;2.42;;;8.80;36.90;;;;;;5015534;28;20396;-77
2021/01/21 10:26:03;;;;;;;9.65;2.03;;;8.90;36.80;;;;;;5014468;28;20437;-74
2021/01/21 10:28:28;;;;;;;9.48;1.83;;;9.10;36.20;;;;;;4996395;28;20390;-75
2021/01/21 10:30:54;;;;;;;8.43;1.93;;;9.30;34.10;;;;;;5002536;28;20407;-74
2021/01/21 10:33:20;;;;;;;7.85;1.60;;;9.40;33.30;;;;;;5014274;28;20415;-74
2021/01/21 10:35:45;;;;;;;6.70;2.13;;;9.30;34.10;;;;;;5014513;28;20855;-73
2021/01/21 10:38:11;;;;;;;9.03;1.53;;;9.20;33.90;;;;;;5014533;28;20409;-74
2021/01/21 10:40:36;;;;;;;4.70;1.53;;;9.20;33.50;;;;;;5014999;28;20411;-74
2021/01/21 10:43:02;;;;;;;14.97;2.80;;;9.30;34.60;;;;;;5014866;28;20419;-74
2021/01/21 10:45:27;;;;;;;11.20;2.20;;;9.30;34.80;;;;;;5011276;28;20404;-75
2021/01/21 10:47:53;;;;;;;6.00;2.00;;;9.30;34.30;;;;;;5013508;28;20435;-74
2021/01/21 10:50:18;;;;;;;5.57;1.80;;;9.40;33.90;;;;;;5014010;28;20494;-73
2021/01/21 10:52:44;;;;;;;5.90;1.53;;;9.60;32.70;;;;;;5015059;28;20859;-75
2021/01/21 10:55:10;;;;;;;7.07;1.75;;;9.80;31.40;;;;;;5013728;28;20929;-74
2021/01/21 10:57:36;;;;;;;9.32;2.33;;;9.90;30.90;;;;;;5012421;28;20405;-74
2021/01/21 11:00:03;;;;;;;12.35;1.90;;;10.00;30.80;;;;;;5012339;28;20554;-75
2021/01/21 11:02:29;;;;;;;13.77;2.00;;;10.10;30.80;;;;;;5015830;28;20442;-74
2021/01/21 11:04:54;;;;;;;9.70;1.67;;;10.30;29.90;;;;;;5013473;28;20401;-74
2021/01/21 11:07:20;;;;;;;6.90;1.77;;;10.50;28.40;;;;;;5018162;28;20392;-76
2021/01/21 11:09:45;;;;;;;6.70;1.83;;;10.70;27.90;;;;;;5014296;28;20399;-70
2021/01/21 11:12:11;;;;;;;7.70;2.20;;;10.60;27.50;;;;;;5016594;28;20408;-74
2021/01/21 11:14:38;;;;;;;7.37;1.80;;;10.60;27.30;;;;;;5016443;28;21182;-74
2021/01/21 11:17:03;;;;;;;7.65;1.92;;;10.50;27.20;;;;;;5015681;28;20381;-73
2021/01/21 11:19:29;;;;;;;8.20;1.20;;;10.50;27.60;;;;;;5014393;28;20443;-74
2021/01/21 11:21:54;;;;;;;7.57;1.60;;;10.40;27.80;;;;;;5013828;28;20432;-74
2021/01/21 11:24:20;;;;;;;4.35;1.60;;;10.40;27.40;;;;;;5013168;28;20404;-74
2021/01/21 11:26:46;;;;;;;7.78;1.67;;;10.40;28.30;;;;;;5012813;28;20396;-71
2021/01/21 11:29:12;;;;;;;11.50;2.10;;;10.30;28.30;;;;;;5013473;28;20432;-74
2021/01/21 11:31:38;;;;;;;7.60;1.70;;;10.30;28.60;;;;;;5016701;28;20388;-72
2021/01/21 11:34:04;;;;;;;5.50;1.60;;;10.30;28.10;;;;;;5015277;28;20409;-75
2021/01/21 11:36:29;;;;;;;5.50;1.80;;;10.30;28.40;;;;;;5015273;28;20385;-74
2021/01/21 11:38:55;;;;;;;5.55;1.80;;;10.30;28.10;;;;;;5012756;28;20520;-73
2021/01/21 11:41:20;;;;;;;5.07;1.35;;;10.20;27.60;;;;;;5016435;28;20495;-72
2021/01/21 11:43:46;;;;;;;9.48;1.73;;;10.20;28.00;;;;;;5018364;28;20886;-75
2021/01/21 11:46:11;;;;;;;6.80;1.70;;;10.20;28.70;;;;;;5011971;28;20410;-75
2021/01/21 11:48:37;;;;;;;11.83;1.80;;;10.20;28.30;;;;;;5016610;28;20412;-71
2021/01/21 11:51:03;;;;;;;3.25;1.60;;;10.20;27.30;;;;;;5013339;28;20466;-73
2021/01/21 11:53:28;;;;;;;6.65;1.63;;;10.20;27.80;;;;;;5013380;28;20393;-74
2021/01/21 11:55:54;;;;;;;5.13;1.73;;;10.20;28.00;;;;;;5014843;28;20416;-75
2021/01/21 11:58:19;;;;;;;6.15;1.75;;;10.20;28.00;;;;;;5017769;28;20476;-73
2021/01/21 12:00:45;;;;;;;6.70;1.67;;;10.20;28.00;;;;;;5014643;28;20405;-73
2021/01/21 12:03:10;;;;;;;8.33;1.50;;;10.30;27.80;;;;;;5019918;28;20413;-74
2021/01/21 12:05:36;;;;;;;8.30;1.70;;;10.20;27.80;;;;;;5016052;28;20478;-73
2021/01/21 12:08:02;;;;;;;3.30;1.47;;;10.30;28.30;;;;;;5017269;28;20399;-75
2021/01/21 12:10:27;;;;;;;5.87;1.60;;;10.20;28.10;;;;;;5018321;28;20818;-74
2021/01/21 12:12:53;;;;;;;5.37;1.80;;;10.20;27.70;;;;;;5020528;28;20421;-75
2021/01/21 12:15:18;;;;;;;6.60;1.60;;;10.30;27.80;;;;;;5019199;28;20416;-73
2021/01/21 12:17:44;;;;;;;6.07;1.52;;;10.30;27.60;;;;;;5018531;28;20424;-73
2021/01/21 12:20:10;;;;;;;6.85;1.50;;;10.20;27.70;;;;;;5015164;28;20884;-72
2021/01/21 12:22:36;;;;;;;5.95;1.73;;;10.30;27.50;;;;;;5014540;28;20443;-72
2021/01/21 12:25:02;;;;;;;6.47;1.63;;;10.30;27.50;;;;;;5014807;28;20401;-73
2021/01/21 12:27:28;;;;;;;4.80;1.50;;;10.40;26.80;;;;;;5014904;28;20408;-72
2021/01/21 12:29:53;;;;;;;5.67;1.30;;;10.50;26.20;;;;;;5014776;28;20412;-73
2021/01/21 12:32:19;;;;;;;6.10;2.07;;;10.70;25.70;;;;;;5014446;28;20416;-73
2021/01/21 12:34:45;;;;;;;5.70;1.40;;;10.80;25.50;;;;;;5016445;28;20389;-73
2021/01/21 12:37:10;;;;;;;7.90;1.73;;;10.90;25.10;;;;;;5014675;28;20894;-74
2021/01/21 12:39:36;;;;;;;4.90;1.40;;;10.80;25.00;;;;;;5016054;28;20485;-73
2021/01/21 12:42:01;;;;;;;4.20;1.33;;;10.80;25.30;;;;;;5013183;28;20424;-72
2021/01/21 12:44:27;;;;;;;2.95;1.30;;;10.90;25.40;;;;;;5016299;28;20440;-74
2021/01/21 12:46:53;;;;;;;10.23;1.85;;;10.80;24.80;;;;;;5014951;28;20439;-73
2021/01/21 12:49:18;;;;;;;7.97;1.53;;;10.90;24.80;;;;;;5014915;28;20546;-73
2021/01/21 12:51:44;;;;;;;4.68;1.60;;;10.80;25.00;;;;;;5013549;28;20388;-76
2021/01/21 12:54:09;;;;;;;5.85;1.42;;;10.80;25.20;;;;;;5010163;28;20483;-75
2021/01/21 12:56:35;;;;;;;3.97;1.23;;;10.70;25.30;;;;;;5011596;28;20416;-73